Time;durP1;ratioP1;P1;durP2;ratioP2;P2;SDS_P1;SDS_P2;PMS_P1;PMS_P2;Temp;Humidity;BMP_temperature;BMP_pressure;BME280_temperature;BME280_humidity;BME280_pressure;Samples;Min_cycle;Max_cycle;Signal;HPM_P1;HPM_P2
2021/11/08 00:01:45;;;;;;;8.00;4.97;;;6.70;99.90;;;;;;5082784;28;20191;-83
2021/11/08 00:04:13;;;;;;;8.35;5.63;;;;;;;;;;5070457;28;20199;-83
2021/11/08 00:06:41;;;;;;;5.72;5.13;;;;;;;;;;5070664;28;20615;-83
2021/11/08 00:09:08;;;;;;;6.43;5.25;;;;;;;;;;5070591;28;20265;-83
2021/11/08 00:11:37;;;;;;;6.47;4.78;;;;;;;;;;5070313;28;20249;-83
2021/11/08 00:14:06;;;;;;;10.30;5.35;;;;;;;;;;5069857;28;20781;-83
2021/11/08 00:16:39;;;;;;;7.78;5.35;;;;;;;;;;5070598;28;20318;-83
2021/11/08 00:19:24;;;;;;;7.25;4.30;;;;;;;;;;5071659;28;20208;-83
2021/11/08 00:21:55;;;;;;;7.90;5.47;;;;;;;;;;5077267;28;20206;-82
2021/11/08 00:24:24;;;;;;;7.68;5.07;;;;;;;;;;5069770;28;20661;-82
2021/11/08 00:26:52;;;;;;;12.75;6.35;;;;;;;;;;5072940;28;20662;-84
2021/11/08 00:29:19;;;;;;;6.18;4.53;;;;;;;;;;5090447;28;20660;-83
2021/11/08 00:31:47;;;;;;;6.80;5.47;;;;;;;;;;5082120;28;20286;-83
2021/11/08 00:34:14;;;;;;;8.05;5.63;;;;;;;;;;5070096;28;20223;-83
2021/11/08 00:36:41;;;;;;;10.02;5.00;;;;;;;;;;5069570;28;20306;-83
2021/11/08 00:39:10;;;;;;;8.68;5.70;;;;;;;;;;5070314;28;20829;-82
2021/11/08 00:41:38;;;;;;;7.60;6.22;;;;;;;;;;5070012;28;20278;-83
2021/11/08 00:44:05;;;;;;;9.90;5.72;;;;;;;;;;5070053;28;20238;-83
2021/11/08 00:46:32;;;;;;;8.88;5.85;;;;;;;;;;5070236;28;20231;-83
2021/11/08 00:48:59;;;;;;;6.00;4.97;;;;;;;;;;5070027;28;20257;-83
2021/11/08 00:51:27;;;;;;;8.27;5.45;;;;;;;;;;5069623;28;20393;-83
2021/11/08 00:53:54;;;;;;;5.97;5.38;;;;;;;;;;5070202;28;20215;-83
2021/11/08 00:56:24;;;;;;;10.52;6.35;;;;;;;;;;5070156;28;20220;-83
2021/11/08 00:58:51;;;;;;;9.23;5.40;;;;;;;;;;5071276;28;20208;-83
2021/11/08 01:01:20;;;;;;;7.57;5.65;;;;;;;;;;5073580;28;20231;-83
2021/11/08 01:03:48;;;;;;;7.93;5.60;;;6.20;99.90;;;;;;5073151;28;20245;-83
2021/11/08 01:06:17;;;;;;;6.45;4.93;;;6.10;99.90;;;;;;5073900;28;20200;-84
2021/11/08 01:08:44;;;;;;;5.28;4.78;;;;;;;;;;5073617;28;20547;-84
2021/11/08 01:11:12;;;;;;;7.68;5.65;;;;;;;;;;5073344;28;20200;-83
2021/11/08 01:13:41;;;;;;;7.32;4.50;;;;;;;;;;5073404;28;20213;-83
2021/11/08 01:16:09;;;;;;;7.82;6.60;;;6.10;99.90;;;;;;5073208;28;20200;-83
2021/11/08 01:18:37;;;;;;;6.43;4.57;;;;;;;;;;5073135;28;20200;-83
2021/11/08 01:21:06;;;;;;;6.43;4.60;;;;;;;;;;5073282;28;20301;-84
2021/11/08 01:23:34;;;;;;;5.30;4.60;;;;;;;;;;5073392;28;20208;-84
2021/11/08 01:26:04;;;;;;;9.25;4.35;;;;;;;;;;5073409;28;20248;-83
2021/11/08 01:28:35;;;;;;;12.88;5.05;;;;;;;;;;5073269;28;20204;-83
2021/11/08 01:31:04;;;;;;;11.80;5.55;;;8.40;99.90;;;;;;5072522;28;20207;-83
2021/11/08 01:33:31;;;;;;;5.90;4.88;;;;;;;;;;5073012;28;20192;-83
2021/11/08 01:36:09;;;;;;;6.45;5.30;;;;;;;;;;5073097;28;20294;-83
2021/11/08 01:38:40;;;;;;;5.38;4.43;;;5.70;99.90;;;;;;5072765;28;20238;-84
2021/11/08 01:41:07;;;;;;;6.05;4.68;;;;;;;;;;5072688;28;20192;-83
2021/11/08 01:43:35;;;;;;;7.20;5.25;;;;;;;;;;5072354;28;20793;-84
2021/11/08 01:46:05;;;;;;;6.97;4.88;;;;;;;;;;5072920;28;20286;-82
2021/11/08 01:48:33;;;;;;;6.65;4.85;;;5.50;99.90;;;;;;5072963;28;20208;-83
2021/11/08 01:51:00;;;;;;;5.57;5.07;;;;;;;;;;5072547;28;20684;-83
2021/11/08 01:53:28;;;;;;;7.93;5.55;;;;;;;;;;5072757;28;20235;-83
2021/11/08 01:55:55;;;;;;;9.88;5.38;;;;;;;;;;5072395;28;20211;-83
2021/11/08 01:58:25;;;;;;;7.38;4.95;;;5.30;99.90;;;;;;5072827;28;20326;-83
2021/11/08 02:00:53;;;;;;;7.97;5.00;;;5.20;99.90;;;;;;5072717;28;20248;-84
2021/11/08 02:03:23;;;;;;;5.13;4.63;;;;;;;;;;5072193;28;20278;-83
2021/11/08 02:05:50;;;;;;;8.73;4.85;;;;;;;;;;5073041;28;20231;-83
2021/11/08 02:08:20;;;;;;;7.85;4.60;;;;;;;;;;5072254;28;20582;-83
2021/11/08 02:10:48;;;;;;;10.70;4.68;;;;;;;;;;5071637;28;20268;-84
2021/11/08 02:13:15;;;;;;;6.50;4.32;;;;;;;;;;5072510;28;20208;-84
2021/11/08 02:15:42;;;;;;;5.60;5.10;;;;;;;;;;5072154;28;20609;-83
2021/11/08 02:18:11;;;;;;;6.78;5.28;;;4.90;99.90;;;;;;5072286;28;20324;-83
2021/11/08 02:20:42;;;;;;;8.85;5.57;;;;;;;;;;5072033;28;20206;-82
2021/11/08 02:23:10;;;;;;;7.90;4.90;;;;;;;;;;5071621;28;20201;-83
2021/11/08 02:25:38;;;;;;;6.25;5.15;;;;;;;;;;5071883;28;20261;-84
2021/11/08 02:28:06;;;;;;;5.05;4.53;;;4.60;99.90;;;;;;5072125;28;20658;-83
2021/11/08 02:30:36;;;;;;;8.50;6.32;;;;;;;;;;5071665;28;20218;-84
2021/11/08 02:33:07;;;;;;;7.22;5.30;;;4.50;99.90;;;;;;5072054;28;20741;-84
2021/11/08 02:35:35;;;;;;;4.75;4.35;;;;;;;;;;5071604;28;20298;-83
2021/11/08 02:38:04;;;;;;;11.45;5.63;;;;;;;;;;5071860;28;20317;-84
2021/11/08 02:40:31;;;;;;;9.88;6.28;;;;;;;;;;5071526;28;20203;-82
2021/11/08 02:43:00;;;;;;;5.97;4.72;;;;;;;;;;5071903;28;20261;-84
2021/11/08 02:45:29;;;;;;;6.90;4.93;;;4.30;99.90;;;;;;5071583;28;20242;-84
2021/11/08 02:47:57;;;;;;;6.18;5.00;;;;;;;;;;5071367;28;20218;-84
2021/11/08 02:50:27;;;;;;;8.13;4.95;;;4.10;99.90;;;;;;5071514;28;20210;-83
2021/11/08 02:52:55;;;;;;;8.52;5.13;;;;;;;;;;5071726;28;20214;-84
2021/11/08 02:55:25;;;;;;;6.15;4.85;;;4.10;99.90;;;;;;5071485;28;20199;-84
2021/11/08 02:57:55;;;;;;;11.05;4.70;;;4.20;99.90;;;;;;5071266;28;20226;-83
2021/11/08 03:00:26;;;;;;;8.13;5.20;;;;;;;;;;5070877;28;20229;-84
2021/11/08 03:02:54;;;;;;;5.43;4.82;;;;;;;;;;5071423;28;20678;-84
2021/11/08 03:05:31;;;;;;;7.25;5.65;;;;;;;;;;5071734;28;20196;-84
2021/11/08 03:07:58;;;;;;;6.72;5.53;;;4.00;99.90;;;;;;5071419;28;20209;-84
2021/11/08 03:10:29;;;;;;;6.97;4.65;;;4.00;99.90;;;;;;5071129;28;20642;-83
2021/11/08 03:12:58;;;;;;;8.85;5.13;;;;;;;;;;5070823;28;20202;-83
2021/11/08 03:15:39;;;;;;;6.57;5.53;;;;;;;;;;5070211;28;20299;-84
2021/11/08 03:18:10;;;;;;;6.93;4.47;;;;;;;;;;5070179;28;20237;-83
2021/11/08 03:20:38;;;;;;;6.55;5.75;;;;;;;;;;5070783;28;20217;-83
2021/11/08 03:23:07;;;;;;;7.78;4.40;;;;;;;;;;5071005;28;20280;-83
2021/11/08 03:25:42;;;;;;;5.82;4.97;;;;;;;;;;5070511;28;20198;-84
2021/11/08 03:28:11;;;;;;;6.65;4.40;;;3.70;99.90;;;;;;5071116;28;20253;-83
2021/11/08 03:30:41;;;;;;;6.10;4.72;;;3.60;99.90;;;;;;5070853;28;20686;-84
2021/11/08 03:33:10;;;;;;;5.88;5.18;;;3.60;99.90;;;;;;5070725;28;20194;-83
2021/11/08 03:35:38;;;;;;;7.35;4.75;;;;;;;;;;5070704;28;20300;-84
2021/11/08 03:38:07;;;;;;;6.22;5.63;;;3.80;99.90;;;;;;5070307;28;20229;-83
2021/11/08 03:40:38;;;;;;;8.05;5.38;;;3.50;99.90;;;;;;5070861;28;20351;-83
2021/11/08 03:43:05;;;;;;;10.07;5.05;;;;;;;;;;5071069;28;20251;-84
2021/11/08 03:45:34;;;;;;;7.95;5.82;;;3.60;99.90;;;;;;5070749;28;20298;-84
2021/11/08 03:48:01;;;;;;;7.47;5.85;;;;;;;;;;5071259;28;20216;-84
2021/11/08 03:50:29;;;;;;;5.93;5.40;;;;;;;;;;5070215;28;20627;-83
2021/11/08 03:52:56;;;;;;;7.65;6.90;;;;;;;;;;5070821;28;20197;-84
2021/11/08 03:55:24;;;;;;;8.65;5.82;;;;;;;;;;5070820;28;20227;-84
2021/11/08 03:57:53;;;;;;;6.03;5.43;;;3.60;99.90;;;;;;5070525;28;20237;-84
2021/11/08 04:00:24;;;;;;;7.82;5.20;;;3.50;99.90;;;;;;5070277;28;20746;-82
2021/11/08 04:02:54;;;;;;;9.13;4.45;;;3.40;99.90;;;;;;5070514;28;20210;-84
2021/11/08 04:05:24;;;;;;;7.22;5.55;;;3.50;99.90;;;;;;5070502;28;20213;-84
2021/11/08 04:07:52;;;;;;;8.43;5.10;;;3.50;99.90;;;;;;5070636;28;20255;-84
2021/11/08 04:10:20;;;;;;;8.65;5.72;;;3.40;99.90;;;;;;5070730;28;20229;-84
2021/11/08 04:12:49;;;;;;;7.75;5.28;;;;;;;;;;5070573;28;20248;-84
2021/11/08 04:15:19;;;;;;;5.65;4.60;;;;;;;;;;5069708;28;20262;-83
2021/11/08 04:17:46;;;;;;;8.68;4.72;;;;;;;;;;5070097;28;20867;-84
2021/11/08 04:20:17;;;;;;;8.45;5.97;;;3.40;99.90;;;;;;5070445;28;20260;-84
2021/11/08 04:22:52;;;;;;;11.32;6.35;;;;;;;;;;5070819;28;20208;-84
2021/11/08 04:25:29;;;;;;;8.52;6.32;;;;;;;;;;5070777;28;20228;-84
2021/11/08 04:27:57;;;;;;;10.23;7.07;;;;;;;;;;5069917;28;20218;-84
2021/11/08 04:30:27;;;;;;;12.27;6.90;;;;;;;;;;5070197;28;21051;-84
2021/11/08 04:35:54;;;;;;;7.93;6.90;;;3.30;99.90;;;;;;5063097;28;20248;-85
2021/11/08 04:41:21;;;;;;;6.20;5.22;;;;;;;;;;5062987;28;20211;-85
2021/11/08 04:43:58;;;;;;;7.00;5.28;;;;;;;;;;5074263;28;20206;-85
2021/11/08 04:49:29;;;;;;;6.90;5.03;;;;;;;;;;5074240;28;20209;-85
2021/11/08 04:52:09;;;;;;;6.35;5.20;;;;;;;;;;5074276;28;20201;-85
2021/11/08 04:54:43;;;;;;;6.90;5.55;;;;;;;;;;5074127;28;20577;-85
2021/11/08 05:22:27;;;;;;;4.88;4.38;;;;;;;;;;5072585;28;20201;-85
2021/11/08 05:28:06;;;;;;;6.78;4.65;;;;;;;;;;5072804;28;20220;-85
2021/11/08 05:30:33;;;;;;;7.80;4.82;;;;;;;;;;5072716;28;20708;-85
2021/11/08 05:33:01;;;;;;;6.80;4.95;;;;;;;;;;5073010;28;20205;-85
2021/11/08 05:35:31;;;;;;;6.50;4.68;;;3.00;99.90;;;;;;5073018;28;20209;-85
2021/11/08 05:37:59;;;;;;;5.68;5.07;;;;;;;;;;5072800;28;20226;-85
2021/11/08 05:40:29;;;;;;;8.63;5.70;;;3.00;99.90;;;;;;5072834;28;20638;-84
2021/11/08 05:42:57;;;;;;;8.43;5.80;;;;;;;;;;5072600;28;20309;-86
2021/11/08 05:45:30;;;;;;;6.60;5.47;;;;;;;;;;5071606;28;20201;-85
2021/11/08 05:47:57;;;;;;;8.60;5.30;;;;;;;;;;5073050;28;20246;-85
2021/11/08 05:50:25;;;;;;;6.57;5.85;;;;;;;;;;5072730;28;20228;-84
2021/11/08 05:52:54;;;;;;;7.82;5.65;;;;;;;;;;5072606;28;20201;-84
2021/11/08 05:55:23;;;;;;;6.15;4.32;;;;;;;;;;5072449;28;20286;-85
2021/11/08 05:57:55;;;;;;;8.38;5.68;;;;;;;;;;5072564;28;20635;-85
2021/11/08 06:49:58;;;;;;;7.15;5.47;;;;;;;;;;5071345;28;20736;-86
2021/11/08 06:52:27;;;;;;;11.05;5.80;;;;;;;;;;5071559;28;20229;-86
2021/11/08 06:54:55;;;;;;;8.02;5.82;;;;;;;;;;5071575;28;20293;-86
2021/11/08 06:57:30;;;;;;;9.25;6.05;;;;;;;;;;5071063;28;20295;-86
2021/11/08 06:59:58;;;;;;;7.00;6.07;;;;;;;;;;5071193;28;20698;-87
2021/11/08 07:02:25;;;;;;;7.80;5.50;;;;;;;;;;5070815;28;20293;-86
2021/11/08 07:04:52;;;;;;;5.78;5.03;;;;;;;;;;5071614;28;20204;-86
2021/11/08 07:07:20;;;;;;;9.95;5.65;;;;;;;;;;5071540;28;20250;-86
2021/11/08 07:09:47;;;;;;;6.40;4.85;;;;;;;;;;5071362;28;20202;-87
2021/11/08 07:12:15;;;;;;;8.25;5.75;;;;;;;;;;5071612;28;20221;-86
2021/11/08 07:14:44;;;;;;;13.88;6.43;;;;;;;;;;5070117;28;20206;-86
2021/11/08 07:17:11;;;;;;;11.68;6.25;;;;;;;;;;5070733;28;20256;-86
2021/11/08 07:19:38;;;;;;;9.13;5.47;;;;;;;;;;5071193;28;20285;-86
2021/11/08 07:22:05;;;;;;;7.72;5.45;;;;;;;;;;5071022;28;20201;-86
2021/11/08 07:24:33;;;;;;;5.90;5.30;;;;;;;;;;5071202;28;20895;-87
2021/11/08 07:27:00;;;;;;;6.80;5.45;;;;;;;;;;5070921;28;20275;-86
2021/11/08 07:29:28;;;;;;;14.10;6.65;;;;;;;;;;5071032;28;20251;-86
2021/11/08 07:31:58;;;;;;;7.22;6.13;;;;;;;;;;5070811;28;20558;-86
2021/11/08 07:34:25;;;;;;;8.70;6.85;;;;;;;;;;5070621;28;20201;-86
2021/11/08 07:36:53;;;;;;;10.65;6.57;;;;;;;;;;5070759;28;20205;-86
2021/11/08 07:39:21;;;;;;;9.27;8.25;;;3.80;99.90;;;;;;5070742;28;20305;-85
2021/11/08 07:41:48;;;;;;;12.40;7.28;;;;;;;;;;5070025;28;20267;-86
2021/11/08 07:44:15;;;;;;;18.77;8.02;;;;;;;;;;5070866;28;20622;-85
2021/11/08 07:46:43;;;;;;;10.23;8.10;;;;;;;;;;5070761;28;20200;-85
2021/11/08 07:49:11;;;;;;;14.30;7.97;;;;;;;;;;5070744;28;20554;-86
2021/11/08 07:51:39;;;;;;;10.38;9.13;;;;;;;;;;5070655;28;20961;-86
2021/11/08 07:54:06;;;;;;;14.68;9.00;;;;;;;;;;5070530;28;20206;-85
2021/11/08 07:56:37;;;;;;;13.23;9.70;;;;;;;;;;5070211;28;20241;-86
2021/11/08 07:59:04;;;;;;;16.33;10.60;;;;;;;;;;5070595;28;20264;-86
2021/11/08 08:01:31;;;;;;;13.48;9.63;;;;;;;;;;5070462;28;20264;-86
2021/11/08 08:03:59;;;;;;;15.43;8.85;;;;;;;;;;5070650;28;20206;-85
2021/11/08 08:06:27;;;;;;;13.13;9.70;;;;;;;;;;5070490;28;20259;-86
2021/11/08 08:08:57;;;;;;;15.45;9.70;;;;;;;;;;5069224;28;20211;-86
2021/11/08 08:11:24;;;;;;;10.82;8.50;;;;;;;;;;5070630;28;20261;-86
2021/11/08 08:13:51;;;;;;;12.13;8.50;;;;;;;;;;5070481;28;20207;-86
2021/11/08 08:16:20;;;;;;;12.50;8.30;;;4.90;99.90;;;;;;5070549;28;20214;-86
2021/11/08 08:18:48;;;;;;;16.15;8.55;;;;;;;;;;5070301;28;20245;-86
2021/11/08 08:21:16;;;;;;;8.68;7.65;;;;;;;;;;5069926;28;20206;-86
2021/11/08 08:23:44;;;;;;;14.48;8.35;;;;;;;;;;5070074;28;20202;-86
2021/11/08 08:26:13;;;;;;;12.95;9.35;;;5.50;99.90;;;;;;5070643;28;20207;-86
2021/11/08 08:28:41;;;;;;;12.18;7.90;;;5.50;99.90;;;;;;5070270;28;20208;-86
2021/11/08 08:31:08;;;;;;;19.63;7.15;;;;;;;;;;5070087;28;20204;-85
2021/11/08 08:33:37;;;;;;;16.92;7.53;;;;;;;;;;5069921;28;20291;-86
2021/11/08 08:36:05;;;;;;;13.25;7.72;;;;;;;;;;5069618;28;20216;-85
2021/11/08 08:38:32;;;;;;;10.25;7.07;;;;;;;;;;5069971;28;20255;-86
2021/11/08 08:41:01;;;;;;;17.85;8.27;;;;;;;;;;5069891;28;20271;-86
2021/11/08 08:43:30;;;;;;;11.65;7.00;;;;;;;;;;5070081;28;20257;-86
2021/11/08 08:45:59;;;;;;;10.82;5.80;;;5.80;99.90;;;;;;5070149;28;20273;-86
2021/11/08 08:48:26;;;;;;;11.35;6.57;;;;;;;;;;5069671;28;20208;-86
2021/11/08 08:50:54;;;;;;;7.05;4.80;;;;;;;;;;5070144;28;20200;-86
2021/11/08 08:53:21;;;;;;;13.82;4.95;;;;;;;;;;5070005;28;20679;-86
2021/11/08 08:55:48;;;;;;;7.07;4.47;;;;;;;;;;5070321;28;20200;-86
2021/11/08 08:58:17;;;;;;;6.95;4.70;;;;;;;;;;5070169;28;20337;-86
2021/11/08 09:00:47;;;;;;;5.18;4.05;;;6.30;99.90;;;;;;5069939;28;20606;-86
2021/11/08 09:03:15;;;;;;;8.88;4.68;;;5.90;99.90;;;;;;5069861;28;20254;-86
2021/11/08 09:05:42;;;;;;;13.93;4.90;;;;;;;;;;5070365;28;20608;-86
2021/11/08 09:08:09;;;;;;;11.13;4.78;;;;;;;;;;5070088;28;20239;-86
2021/11/08 09:10:36;;;;;;;10.80;4.95;;;;;;;;;;5069809;28;20735;-86
2021/11/08 09:13:05;;;;;;;11.65;4.30;;;6.60;99.90;;;;;;5069804;28;20274;-86
2021/11/08 09:15:35;;;;;;;10.20;4.55;;;6.60;99.90;;;;;;5068927;28;20199;-86
2021/11/08 09:18:04;;;;;;;11.15;5.05;;;6.70;99.90;;;;;;5069982;28;20250;-86
2021/11/08 09:20:32;;;;;;;11.93;5.13;;;6.80;99.90;;;;;;5071807;28;20262;-85
2021/11/08 09:23:00;;;;;;;17.38;4.78;;;6.80;99.90;;;;;;5073406;28;20188;-86
2021/11/08 09:25:28;;;;;;;9.20;4.85;;;6.70;99.90;;;;;;5073483;28;20204;-86
2021/11/08 09:27:56;;;;;;;11.27;4.03;;;6.70;99.90;;;;;;5073005;28;20622;-85
2021/11/08 09:30:29;;;;;;;7.63;4.60;;;6.70;99.90;;;;;;5073214;28;20200;-85
2021/11/08 09:32:57;;;;;;;11.98;5.60;;;;;;;;;;5064947;28;20684;-85
2021/11/08 09:35:30;;;;;;;12.27;5.10;;;6.90;99.90;;;;;;5073141;28;20208;-86
2021/11/08 09:37:58;;;;;;;9.23;4.93;;;;;;;;;;5072198;28;20258;-86
2021/11/08 09:40:25;;;;;;;8.85;4.90;;;;;;;;;;5064191;28;20302;-85
2021/11/08 09:42:54;;;;;;;7.35;5.13;;;6.80;99.90;;;;;;5072836;28;20222;-85
2021/11/08 09:45:22;;;;;;;10.35;5.57;;;6.80;99.90;;;;;;5072976;28;20204;-85
2021/11/08 09:47:52;;;;;;;10.82;5.57;;;;;;;;;;5072861;28;20199;-84
2021/11/08 09:50:23;;;;;;;11.55;6.05;;;6.70;99.90;;;;;;5072436;28;20200;-85
2021/11/08 09:52:51;;;;;;;12.23;6.75;;;6.60;99.90;;;;;;5072546;28;20196;-85
2021/11/08 09:55:23;;;;;;;11.20;5.55;;;6.60;99.90;;;;;;5072361;28;20230;-85
2021/11/08 09:57:53;;;;;;;17.45;5.20;;;6.70;99.90;;;;;;5072627;28;20264;-85
2021/11/08 10:00:23;;;;;;;11.77;6.43;;;6.80;99.90;;;;;;5072514;28;20322;-85
2021/11/08 10:02:56;;;;;;;12.80;6.38;;;6.90;99.90;;;;;;5072778;28;20289;-85
2021/11/08 10:05:31;;;;;;;9.90;5.88;;;7.00;99.90;;;;;;5072326;28;20568;-84
2021/11/08 10:08:01;;;;;;;8.18;6.45;;;;;;;;;;5072547;28;20199;-85
2021/11/08 10:10:28;;;;;;;7.63;6.32;;;7.20;99.90;;;;;;5072492;28;20214;-84
2021/11/08 10:13:06;;;;;;;10.98;7.35;;;7.00;99.90;;;;;;5072348;28;20254;-84
2021/11/08 10:15:35;;;;;;;10.80;7.05;;;;;;;;;;5071241;28;20666;-83
2021/11/08 10:18:03;;;;;;;12.70;9.18;;;7.00;99.90;;;;;;5071632;28;20195;-85
2021/11/08 10:20:38;;;;;;;20.77;10.68;;;7.20;99.90;;;;;;5072168;28;20259;-84
2021/11/08 10:23:06;;;;;;;10.73;9.15;;;;;;;;;;5072208;28;20195;-85
2021/11/08 10:25:35;;;;;;;22.52;10.32;;;7.40;99.90;;;;;;5072011;28;20661;-84
2021/11/08 10:28:08;;;;;;;12.30;9.88;;;7.60;99.90;;;;;;5071591;28;20722;-84
2021/11/08 10:30:36;;;;;;;15.48;9.80;;;7.70;99.90;;;;;;5070464;28;20235;-85
2021/11/08 10:33:13;;;;;;;11.98;8.63;;;8.10;99.90;;;;;;5070569;28;20534;-84
2021/11/08 10:35:42;;;;;;;12.30;8.23;;;;;;;;;;5072374;28;20235;-85
2021/11/08 10:38:15;;;;;;;15.65;7.45;;;8.10;99.90;;;;;;5071824;28;20629;-84
2021/11/08 10:40:44;;;;;;;18.45;7.57;;;7.90;99.90;;;;;;5071708;28;20282;-84
2021/11/08 10:43:12;;;;;;;10.55;6.15;;;;;;;;;;5071531;28;20207;-84
2021/11/08 10:45:47;;;;;;;13.02;7.35;;;;;;;;;;5071900;28;20238;-83
2021/11/08 10:48:20;;;;;;;19.38;8.88;;;;;;;;;;5071593;28;20203;-85
2021/11/08 10:50:50;;;;;;;9.82;7.93;;;7.60;99.90;;;;;;5071621;28;20570;-85
2021/11/08 10:53:17;;;;;;;12.52;8.75;;;;;;;;;;5071640;28;20211;-86
2021/11/08 10:55:44;;;;;;;17.30;8.88;;;;;;;;;;5071397;28;20261;-85
2021/11/08 10:58:15;;;;;;;15.15;7.78;;;8.00;99.90;;;;;;5071422;28;20207;-83
2021/11/08 11:00:49;;;;;;;13.88;8.13;;;;;;;;;;5071511;28;20242;-85
2021/11/08 11:03:18;;;;;;;12.40;7.72;;;7.90;99.90;;;;;;5071262;28;20576;-84
2021/11/08 11:05:45;;;;;;;17.08;9.05;;;;;;;;;;5071459;28;20587;-84
2021/11/08 11:08:15;;;;;;;14.00;9.57;;;;;;;;;;5070862;28;20211;-85
2021/11/08 11:10:53;;;;;;;11.02;8.25;;;;;;;;;;5071359;28;20291;-83
2021/11/08 11:13:21;;;;;;;16.85;7.60;;;;;;;;;;5071573;28;20555;-85
2021/11/08 11:15:49;;;;;;;11.38;7.75;;;;;;;;;;5071012;28;20916;-85
2021/11/08 11:18:17;;;;;;;19.42;8.80;;;;;;;;;;5070969;28;20203;-85
2021/11/08 11:20:47;;;;;;;10.93;7.65;;;7.70;99.90;;;;;;5070571;28;20285;-83
2021/11/08 11:23:23;;;;;;;12.40;8.95;;;7.70;99.90;;;;;;5070918;28;20200;-85
2021/11/08 11:25:53;;;;;;;11.02;7.63;;;7.70;99.90;;;;;;5071159;28;20265;-83
2021/11/08 11:28:24;;;;;;;11.52;7.88;;;;;;;;;;5070834;28;20254;-84
2021/11/08 11:30:52;;;;;;;10.60;7.80;;;;;;;;;;5070595;28;20211;-85
2021/11/08 11:33:21;;;;;;;10.70;7.15;;;7.80;99.90;;;;;;5070881;28;20318;-83
2021/11/08 11:35:51;;;;;;;10.73;7.75;;;8.00;99.90;;;;;;5070963;28;20278;-84
2021/11/08 11:38:21;;;;;;;12.73;8.80;;;;;;;;;;5070777;28;20211;-85
2021/11/08 11:40:54;;;;;;;11.43;8.37;;;8.20;99.90;;;;;;5070575;28;20273;-84
2021/11/08 11:43:27;;;;;;;11.70;7.23;;;;;;;;;;5069569;28;20622;-85
2021/11/08 11:45:56;;;;;;;13.10;8.10;;;8.50;99.90;;;;;;5070754;28;20613;-85
2021/11/08 11:48:26;;;;;;;10.60;7.03;;;8.50;99.90;;;;;;5070658;28;20622;-85
2021/11/08 11:50:54;;;;;;;10.47;7.70;;;;;;;;;;5070741;28;20732;-84
2021/11/08 11:53:22;;;;;;;9.73;6.87;;;;;;;;;;5070753;28;20626;-85
2021/11/08 11:55:50;;;;;;;8.70;6.63;;;;;;;;;;5070465;28;20936;-85
2021/11/08 11:58:17;;;;;;;9.50;7.10;;;;;;;;;;5070625;28;20645;-84
2021/11/08 12:00:46;;;;;;;8.90;5.20;;;9.00;99.90;;;;;;5070362;28;20749;-85
2021/11/08 12:03:13;;;;;;;7.40;5.63;;;;;;;;;;5070442;28;21155;-84
2021/11/08 12:05:44;;;;;;;17.90;6.07;;;;;;;;;;5070698;28;20621;-85
2021/11/08 12:08:13;;;;;;;6.50;4.93;;;8.80;99.90;;;;;;5070410;28;20728;-85
2021/11/08 12:10:50;;;;;;;7.90;5.70;;;;;;;;;;5069947;28;20658;-85
2021/11/08 12:13:29;;;;;;;7.23;5.63;;;;;;;;;;5070030;28;20626;-86
2021/11/08 12:15:57;;;;;;;8.53;5.80;;;8.60;99.90;;;;;;5069446;28;20623;-84
2021/11/08 12:18:25;;;;;;;12.57;5.77;;;8.50;99.90;;;;;;5070164;28;20659;-84
2021/11/08 12:20:53;;;;;;;9.90;5.03;;;8.60;99.90;;;;;;5069709;28;20739;-85
2021/11/08 12:23:22;;;;;;;12.77;6.27;;;8.60;99.90;;;;;;5070541;28;20613;-84
2021/11/08 12:25:50;;;;;;;10.53;5.80;;;;;;;;;;5070871;28;20622;-85
2021/11/08 12:28:22;;;;;;;10.17;5.50;;;8.60;99.90;;;;;;5070573;28;20675;-85
2021/11/08 12:30:53;;;;;;;15.00;4.60;;;;;;;;;;5070365;28;20610;-84
2021/11/08 12:33:27;;;;;;;9.20;3.90;;;8.70;99.90;;;;;;5070141;28;20634;-85
2021/11/08 12:35:56;;;;;;;9.57;4.47;;;8.30;99.90;;;;;;5070494;28;20635;-84
2021/11/08 12:38:25;;;;;;;8.63;4.60;;;;;;;;;;5069914;28;21035;-84
2021/11/08 12:41:05;;;;;;;6.03;4.07;;;;;;;;;;5070141;28;21221;-85
2021/11/08 12:43:32;;;;;;;8.00;5.03;;;;;;;;;;5070334;28;20622;-85
2021/11/08 12:46:10;;;;;;;6.30;4.37;;;8.30;99.90;;;;;;5069625;28;20622;-85
2021/11/08 12:48:37;;;;;;;10.73;3.93;;;;;;;;;;5070137;28;20650;-85
2021/11/08 12:51:06;;;;;;;7.57;3.60;;;8.40;99.90;;;;;;5069998;28;20625;-85
2021/11/08 12:53:36;;;;;;;7.07;4.77;;;8.30;99.90;;;;;;5069951;28;20621;-84
2021/11/08 12:56:08;;;;;;;5.43;3.17;;;;;;;;;;5073417;28;21029;-84
2021/11/08 12:58:41;;;;;;;11.07;5.37;;;8.30;99.90;;;;;;5073433;28;21466;-84
2021/11/08 13:01:14;;;;;;;10.27;3.43;;;8.30;99.90;;;;;;5073767;28;20657;-84
2021/11/08 13:03:45;;;;;;;5.20;3.50;;;;;;;;;;5074236;28;20962;-86
2021/11/08 13:06:26;;;;;;;10.43;3.63;;;;;;;;;;5073825;28;20720;-85
2021/11/08 13:09:04;;;;;;;3.37;2.90;;;;;;;;;;5073174;28;20621;-85
2021/11/08 13:11:41;;;;;;;6.90;3.77;;;10.40;99.90;;;;;;5074613;28;20675;-84
2021/11/08 13:14:09;;;;;;;6.07;3.87;;;8.30;99.90;;;;;;5071789;28;20657;-84
2021/11/08 13:16:41;;;;;;;8.60;4.32;;;8.20;99.90;;;;;;5053462;28;20627;-84
2021/11/08 13:19:11;;;;;;;5.87;3.70;;;8.30;99.90;;;;;;5053442;28;20208;-84
2021/11/08 13:21:39;;;;;;;8.63;3.97;;;8.30;99.90;;;;;;5048367;28;20662;-85
2021/11/08 13:24:09;;;;;;;7.40;3.70;;;8.20;99.90;;;;;;5071947;28;20630;-85
2021/11/08 13:26:41;;;;;;;8.60;3.57;;;;;;;;;;5072994;28;20637;-85
2021/11/08 13:29:17;;;;;;;6.43;3.37;;;;;;;;;;5073771;28;20646;-85
2021/11/08 13:31:44;;;;;;;8.33;3.70;;;;;;;;;;5073093;28;21150;-84
2021/11/08 13:34:13;;;;;;;5.60;2.73;;;;;;;;;;5053323;28;20956;-84
2021/11/08 13:36:41;;;;;;;6.90;3.73;;;;;;;;;;5053279;28;20680;-84
2021/11/08 13:39:08;;;;;;;3.47;2.47;;;;;;;;;;5053255;28;20615;-85
2021/11/08 13:41:36;;;;;;;5.60;3.23;;;;;;;;;;5064553;28;20711;-84
2021/11/08 13:44:06;;;;;;;6.03;3.83;;;8.20;99.90;;;;;;5072736;28;20744;-85
2021/11/08 13:46:40;;;;;;;5.63;3.33;;;8.20;99.90;;;;;;5073185;28;20204;-84
2021/11/08 13:49:17;;;;;;;4.88;2.85;;;10.10;99.90;;;;;;5073275;28;20675;-85
2021/11/08 13:51:48;;;;;;;6.63;3.07;;;8.30;99.90;;;;;;5072921;28;20231;-84
2021/11/08 13:54:19;;;;;;;6.83;3.20;;;8.20;99.90;;;;;;5072812;28;20613;-84
2021/11/08 13:56:56;;;;;;;5.57;3.30;;;8.20;99.90;;;;;;5071117;28;20667;-86
2021/11/08 13:59:27;;;;;;;4.93;2.13;;;8.20;99.90;;;;;;5067296;28;20736;-84
2021/11/08 14:01:58;;;;;;;4.93;2.70;;;8.10;99.90;;;;;;5061819;28;20669;-84
2021/11/08 14:04:32;;;;;;;8.70;3.60;;;;;;;;;;5073316;28;20245;-85
2021/11/08 14:07:00;;;;;;;4.87;3.60;;;;;;;;;;5072343;28;20625;-84
2021/11/08 14:09:28;;;;;;;7.40;3.70;;;;;;;;;;5088052;28;21502;-85
2021/11/08 14:11:56;;;;;;;10.30;3.50;;;8.60;99.40;;;;;;5080592;28;20720;-85
2021/11/08 14:14:26;;;;;;;7.07;3.93;;;8.60;99.80;;;;;;5080289;28;21121;-85
2021/11/08 14:16:54;;;;;;;4.50;3.80;;;;;;;;;;5088185;28;21173;-84
2021/11/08 14:19:23;;;;;;;22.13;4.43;;;8.70;99.80;;;;;;5073279;28;21202;-84
2021/11/08 14:21:53;;;;;;;7.10;3.90;;;8.80;99.00;;;;;;5082205;28;20705;-83
2021/11/08 14:24:24;;;;;;;6.77;5.27;;;8.90;99.90;;;;;;5071192;28;21069;-84
2021/11/08 14:26:54;;;;;;;7.73;3.40;;;9.00;99.70;;;;;;5087082;28;20618;-83
2021/11/08 14:29:24;;;;;;;8.37;4.17;;;8.90;98.30;;;;;;5075500;28;20617;-84
2021/11/08 14:31:55;;;;;;;12.57;4.50;;;;;;;;;;5084193;28;20728;-83
2021/11/08 14:34:27;;;;;;;4.50;3.77;;;8.90;99.70;;;;;;5070170;28;21019;-81
2021/11/08 14:36:55;;;;;;;5.33;3.10;;;;;;;;;;5070114;28;20699;-83
2021/11/08 14:39:25;;;;;;;9.93;3.60;;;8.90;99.20;;;;;;5063266;28;20681;-85
2021/11/08 14:41:57;;;;;;;23.10;3.53;;;8.80;99.90;;;;;;5085743;28;20676;-83
2021/11/08 14:44:26;;;;;;;6.00;3.80;;;8.80;99.50;;;;;;5074388;28;20626;-84
2021/11/08 14:46:55;;;;;;;7.73;3.80;;;8.70;99.70;;;;;;5083779;28;21089;-83
2021/11/08 14:49:26;;;;;;;6.20;3.60;;;8.80;99.70;;;;;;5080305;28;20653;-82
2021/11/08 14:51:58;;;;;;;6.10;3.40;;;;;;;;;;5086479;28;20738;-84
2021/11/08 14:54:26;;;;;;;7.40;2.80;;;8.80;97.10;;;;;;5074608;28;20715;-83
2021/11/08 14:56:56;;;;;;;4.90;3.23;;;8.70;98.90;;;;;;5085676;28;20618;-83
2021/11/08 14:59:27;;;;;;;12.27;4.00;;;;;;;;;;5080424;28;20683;-83
2021/11/08 15:02:02;;;;;;;8.83;4.20;;;;;;;;;;5076737;28;20727;-83
2021/11/08 15:04:30;;;;;;;10.93;4.20;;;;;;;;;;5087858;28;20609;-83
2021/11/08 15:07:00;;;;;;;7.50;3.67;;;8.20;99.70;;;;;;5071195;28;20618;-83
2021/11/08 15:09:27;;;;;;;3.87;3.00;;;;;;;;;;5070572;28;20626;-83
2021/11/08 15:11:54;;;;;;;5.80;3.80;;;;;;;;;;5069868;28;20622;-83
2021/11/08 15:14:22;;;;;;;3.77;3.30;;;8.10;99.90;;;;;;5069956;28;20657;-83
2021/11/08 15:16:52;;;;;;;4.77;4.00;;;8.10;99.90;;;;;;5070616;28;20614;-83
2021/11/08 15:19:20;;;;;;;4.87;2.90;;;;;;;;;;5070523;28;20626;-82
2021/11/08 15:21:53;;;;;;;7.87;3.83;;;7.80;99.90;;;;;;5070286;28;20699;-82
2021/11/08 15:24:24;;;;;;;7.37;3.10;;;;;;;;;;5057543;28;21454;-82
2021/11/08 15:26:53;;;;;;;3.57;3.00;;;7.70;99.90;;;;;;5051085;28;20677;-83
2021/11/08 15:29:24;;;;;;;3.40;3.07;;;7.60;99.90;;;;;;5050767;28;20774;-82
2021/11/08 15:31:52;;;;;;;6.27;3.20;;;;;;;;;;5051127;28;20627;-83
2021/11/08 15:34:22;;;;;;;6.17;3.20;;;;;;;;;;5070678;28;20641;-82